sensor_id;sensor_type;location;lat;lon;timestamp;pressure;altitude;pressure_sealevel;temperature;humidity
65685;BME280;52405;50.844;-1.062;2022-08-21T00:00:49;101790.25;;;18.40;65.02
65685;BME280;52405;50.844;-1.062;2022-08-21T00:03:15;101781.34;;;18.34;64.40
65685;BME280;52405;50.844;-1.062;2022-08-21T00:05:45;101794.63;;;18.41;64.27
65685;BME280;52405;50.844;-1.062;2022-08-21T00:08:11;101799.91;;;18.40;64.46
65685;BME280;52405;50.844;-1.062;2022-08-21T00:10:37;101793.75;;;18.41;65.06
65685;BME280;52405;50.844;-1.062;2022-08-21T00:13:06;101792.88;;;18.40;65.13
65685;BME280;52405;50.844;-1.062;2022-08-21T00:15:34;101791.13;;;18.41;64.63
65685;BME280;52405;50.844;-1.062;2022-08-21T00:18:01;101792.91;;;18.43;65.24
65685;BME280;52405;50.844;-1.062;2022-08-21T00:20:27;101788.59;;;18.45;64.93
65685;BME280;52405;50.844;-1.062;2022-08-21T00:22:53;101800.09;;;18.49;64.81
65685;BME280;52405;50.844;-1.062;2022-08-21T00:25:20;101793.19;;;18.56;64.93
65685;BME280;52405;50.844;-1.062;2022-08-21T00:27:46;101796.78;;;18.61;64.89
65685;BME280;52405;50.844;-1.062;2022-08-21T00:30:13;101785.44;;;18.63;64.39
65685;BME280;52405;50.844;-1.062;2022-08-21T00:32:40;101783.72;;;18.64;64.74
65685;BME280;52405;50.844;-1.062;2022-08-21T00:35:09;101781.13;;;18.67;64.92
65685;BME280;52405;50.844;-1.062;2022-08-21T00:37:37;101782.00;;;18.66;65.02
65685;BME280;52405;50.844;-1.062;2022-08-21T00:40:03;101774.91;;;18.63;64.64
65685;BME280;52405;50.844;-1.062;2022-08-21T00:42:29;101773.16;;;18.62;65.10
65685;BME280;52405;50.844;-1.062;2022-08-21T00:44:55;101768.69;;;18.58;65.22
65685;BME280;52405;50.844;-1.062;2022-08-21T00:47:21;101769.50;;;18.56;64.99
65685;BME280;52405;50.844;-1.062;2022-08-21T00:49:47;101767.69;;;18.52;65.30
65685;BME280;52405;50.844;-1.062;2022-08-21T00:52:17;101760.59;;;18.47;64.88
65685;BME280;52405;50.844;-1.062;2022-08-21T00:54:45;101753.47;;;18.43;65.13
65685;BME280;52405;50.844;-1.062;2022-08-21T00:57:26;101747.28;;;18.40;65.59
65685;BME280;52405;50.844;-1.062;2022-08-21T00:59:56;101756.00;;;18.37;65.77
65685;BME280;52405;50.844;-1.062;2022-08-21T01:02:23;101771.69;;;18.34;65.80
65685;BME280;52405;50.844;-1.062;2022-08-21T01:04:48;101772.53;;;18.32;65.55
65685;BME280;52405;50.844;-1.062;2022-08-21T01:07:15;101768.16;;;18.32;66.35
65685;BME280;52405;50.844;-1.062;2022-08-21T01:09:41;101773.41;;;18.32;66.29
65685;BME280;52405;50.844;-1.062;2022-08-21T01:12:08;101764.72;;;18.35;66.70
65685;BME280;52405;50.844;-1.062;2022-08-21T01:14:35;101772.66;;;18.38;66.17
65685;BME280;52405;50.844;-1.062;2022-08-21T01:17:01;101753.25;;;18.31;66.10
65685;BME280;52405;50.844;-1.062;2022-08-21T01:19:28;101770.16;;;18.44;66.22
65685;BME280;52405;50.844;-1.062;2022-08-21T01:21:55;101768.41;;;18.44;65.71
65685;BME280;52405;50.844;-1.062;2022-08-21T01:24:21;101768.44;;;18.46;65.89
65685;BME280;52405;50.844;-1.062;2022-08-21T01:26:49;101769.28;;;18.45;65.60
65685;BME280;52405;50.844;-1.062;2022-08-21T01:29:36;101767.41;;;18.39;66.13
65685;BME280;52405;50.844;-1.062;2022-08-21T01:32:07;101763.91;;;18.39;65.91
65685;BME280;52405;50.844;-1.062;2022-08-21T01:34:36;101773.53;;;18.37;65.94
65685;BME280;52405;50.844;-1.062;2022-08-21T01:37:02;101774.31;;;18.33;66.08
65685;BME280;52405;50.844;-1.062;2022-08-21T01:39:29;101770.75;;;18.29;66.25
65685;BME280;52405;50.844;-1.062;2022-08-21T01:41:54;101755.72;;;18.23;66.45
65685;BME280;52405;50.844;-1.062;2022-08-21T01:44:21;101760.94;;;18.22;66.35
65685;BME280;52405;50.844;-1.062;2022-08-21T01:46:47;101759.13;;;18.19;66.02
65685;BME280;52405;50.844;-1.062;2022-08-21T01:49:14;101757.31;;;18.17;66.18
65685;BME280;52405;50.844;-1.062;2022-08-21T01:51:41;101754.66;;;18.15;66.62
65685;BME280;52405;50.844;-1.062;2022-08-21T01:54:07;101761.59;;;18.11;67.15
65685;BME280;52405;50.844;-1.062;2022-08-21T01:56:38;101761.53;;;18.08;67.21
65685;BME280;52405;50.844;-1.062;2022-08-21T01:59:05;101753.59;;;18.05;66.58
65685;BME280;52405;50.844;-1.062;2022-08-21T02:01:30;101748.25;;;18.02;67.28
65685;BME280;52405;50.844;-1.062;2022-08-21T02:03:56;101754.38;;;18.01;66.92
65685;BME280;52405;50.844;-1.062;2022-08-21T02:06:21;101743.69;;;17.94;67.05
65685;BME280;52405;50.844;-1.062;2022-08-21T02:08:47;101739.25;;;17.91;67.28
65685;BME280;52405;50.844;-1.062;2022-08-21T02:11:13;101750.59;;;17.88;67.33
65685;BME280;52405;50.844;-1.062;2022-08-21T02:13:39;101754.16;;;17.90;67.12
65685;BME280;52405;50.844;-1.062;2022-08-21T02:16:04;101760.25;;;17.89;67.28
65685;BME280;52405;50.844;-1.062;2022-08-21T02:18:30;101755.84;;;17.88;67.17
65685;BME280;52405;50.844;-1.062;2022-08-21T02:20:56;101754.09;;;17.89;67.96
65685;BME280;52405;50.844;-1.062;2022-08-21T02:23:22;101765.53;;;17.91;67.64
65685;BME280;52405;50.844;-1.062;2022-08-21T02:25:48;101759.44;;;17.92;67.30
65685;BME280;52405;50.844;-1.062;2022-08-21T02:28:14;101756.84;;;17.95;67.34
65685;BME280;52405;50.844;-1.062;2022-08-21T02:30:43;101752.56;;;17.99;67.47
65685;BME280;52405;50.844;-1.062;2022-08-21T02:33:09;101756.13;;;18.02;68.06
65685;BME280;52405;50.844;-1.062;2022-08-21T02:35:37;101755.34;;;18.05;67.99
65685;BME280;52405;50.844;-1.062;2022-08-21T02:38:05;101761.47;;;18.05;67.55
65685;BME280;52405;50.844;-1.062;2022-08-21T02:40:34;101765.06;;;18.09;67.12
65685;BME280;52405;50.844;-1.062;2022-08-21T02:43:01;101764.19;;;18.10;67.78
65685;BME280;52405;50.844;-1.062;2022-08-21T02:45:28;101752.78;;;18.09;67.45
65685;BME280;52405;50.844;-1.062;2022-08-21T02:47:57;101752.88;;;18.13;67.21
65685;BME280;52405;50.844;-1.062;2022-08-21T02:50:27;101753.75;;;18.13;67.00
65685;BME280;52405;50.844;-1.062;2022-08-21T02:52:53;101759.06;;;18.16;67.67
65685;BME280;52405;50.844;-1.062;2022-08-21T02:55:20;101744.19;;;18.17;67.57
65685;BME280;52405;50.844;-1.062;2022-08-21T02:57:47;101738.84;;;18.14;67.18
65685;BME280;52405;50.844;-1.062;2022-08-21T03:00:13;101745.94;;;18.18;67.48
65685;BME280;52405;50.844;-1.062;2022-08-21T03:02:39;101748.56;;;18.16;66.72
65685;BME280;52405;50.844;-1.062;2022-08-21T03:05:06;101745.84;;;18.13;66.70
65685;BME280;52405;50.844;-1.062;2022-08-21T03:07:32;101742.31;;;18.11;67.64
65685;BME280;52405;50.844;-1.062;2022-08-21T03:09:58;101736.06;;;18.06;67.13
65685;BME280;52405;50.844;-1.062;2022-08-21T03:12:24;101738.72;;;18.07;67.13
65685;BME280;52405;50.844;-1.062;2022-08-21T03:14:50;101742.19;;;18.06;67.14
65685;BME280;52405;50.844;-1.062;2022-08-21T03:17:15;101740.44;;;18.05;67.07
65685;BME280;52405;50.844;-1.062;2022-08-21T03:19:41;101742.16;;;18.03;66.95
65685;BME280;52405;50.844;-1.062;2022-08-21T03:22:07;101739.44;;;18.00;67.15
65685;BME280;52405;50.844;-1.062;2022-08-21T03:24:32;101737.66;;;17.98;66.98
65685;BME280;52405;50.844;-1.062;2022-08-21T03:26:58;101737.59;;;17.95;67.65
65685;BME280;52405;50.844;-1.062;2022-08-21T03:29:23;101732.25;;;17.91;67.63
65685;BME280;52405;50.844;-1.062;2022-08-21T03:31:49;101747.97;;;17.90;67.68
65685;BME280;52405;50.844;-1.062;2022-08-21T03:34:14;101740.94;;;17.87;67.35
65685;BME280;52405;50.844;-1.062;2022-08-21T03:36:40;101740.94;;;17.87;67.64
65685;BME280;52405;50.844;-1.062;2022-08-21T03:39:06;101747.91;;;17.85;67.42
65685;BME280;52405;50.844;-1.062;2022-08-21T03:41:31;101744.31;;;17.83;67.79
65685;BME280;52405;50.844;-1.062;2022-08-21T03:43:57;101742.53;;;17.82;67.83
65685;BME280;52405;50.844;-1.062;2022-08-21T03:46:24;101748.66;;;17.83;67.49
65685;BME280;52405;50.844;-1.062;2022-08-21T03:48:50;101743.44;;;17.84;68.04
65685;BME280;52405;50.844;-1.062;2022-08-21T03:51:18;101739.03;;;17.82;67.67
65685;BME280;52405;50.844;-1.062;2022-08-21T03:53:44;101728.47;;;17.80;67.33
65685;BME280;52405;50.844;-1.062;2022-08-21T03:56:10;101738.31;;;17.87;67.46
65685;BME280;52405;50.844;-1.062;2022-08-21T03:58:36;101736.59;;;17.89;67.22
65685;BME280;52405;50.844;-1.062;2022-08-21T04:01:04;101733.16;;;17.92;67.82
65685;BME280;52405;50.844;-1.062;2022-08-21T04:03:31;101733.19;;;17.95;67.17
65685;BME280;52405;50.844;-1.062;2022-08-21T04:05:56;101731.50;;;17.97;68.10
65685;BME280;52405;50.844;-1.062;2022-08-21T04:08:22;101732.41;;;17.99;67.90
65685;BME280;52405;50.844;-1.062;2022-08-21T04:10:50;101741.19;;;18.00;67.92
65685;BME280;52405;50.844;-1.062;2022-08-21T04:13:17;101743.00;;;18.02;67.40
65685;BME280;52405;50.844;-1.062;2022-08-21T04:15:42;101736.81;;;18.00;67.51
65685;BME280;52405;50.844;-1.062;2022-08-21T04:18:08;101745.63;;;18.02;67.44
65685;BME280;52405;50.844;-1.062;2022-08-21T04:20:34;101733.34;;;18.01;67.71
65685;BME280;52405;50.844;-1.062;2022-08-21T04:23:01;101737.75;;;18.02;66.99
65685;BME280;52405;50.844;-1.062;2022-08-21T04:25:27;101741.25;;;18.01;66.99
65685;BME280;52405;50.844;-1.062;2022-08-21T04:27:53;101735.03;;;17.99;67.57
65685;BME280;52405;50.844;-1.062;2022-08-21T04:30:18;101718.22;;;17.91;67.53
65685;BME280;52405;50.844;-1.062;2022-08-21T04:32:46;101735.16;;;18.04;67.32
65685;BME280;52405;50.844;-1.062;2022-08-21T04:35:14;101743.09;;;18.07;67.45
65685;BME280;52405;50.844;-1.062;2022-08-21T04:37:41;101751.91;;;18.09;66.77
65685;BME280;52405;50.844;-1.062;2022-08-21T04:40:08;101748.38;;;18.08;67.44
65685;BME280;52405;50.844;-1.062;2022-08-21T04:42:51;101758.13;;;18.13;66.57
65685;BME280;52405;50.844;-1.062;2022-08-21T04:45:22;101752.00;;;18.14;66.56
65685;BME280;52405;50.844;-1.062;2022-08-21T04:47:50;101762.53;;;18.15;67.04
65685;BME280;52405;50.844;-1.062;2022-08-21T04:50:16;101753.78;;;18.15;66.71
65685;BME280;52405;50.844;-1.062;2022-08-21T04:52:41;101747.66;;;18.16;66.73
65685;BME280;52405;50.844;-1.062;2022-08-21T04:55:07;101757.41;;;18.20;66.41
65685;BME280;52405;50.844;-1.062;2022-08-21T04:57:33;101753.84;;;18.19;66.27
65685;BME280;52405;50.844;-1.062;2022-08-21T05:00:00;101757.41;;;18.21;65.79
65685;BME280;52405;50.844;-1.062;2022-08-21T05:02:25;101753.06;;;18.22;65.95
65685;BME280;52405;50.844;-1.062;2022-08-21T05:04:53;101766.19;;;18.22;65.91
65685;BME280;52405;50.844;-1.062;2022-08-21T05:07:22;101767.13;;;18.24;65.61
65685;BME280;52405;50.844;-1.062;2022-08-21T05:09:49;101766.25;;;18.25;66.04
65685;BME280;52405;50.844;-1.062;2022-08-21T05:12:15;101760.97;;;18.25;65.29
65685;BME280;52405;50.844;-1.062;2022-08-21T05:14:42;101757.50;;;18.26;65.26
65685;BME280;52405;50.844;-1.062;2022-08-21T05:17:08;101762.81;;;18.27;65.55
65685;BME280;52405;50.844;-1.062;2022-08-21T05:19:34;101764.56;;;18.28;65.28
65685;BME280;52405;50.844;-1.062;2022-08-21T05:22:00;101765.41;;;18.26;65.92
65685;BME280;52405;50.844;-1.062;2022-08-21T05:24:26;101768.19;;;18.34;65.01
65685;BME280;52405;50.844;-1.062;2022-08-21T05:26:52;101769.06;;;18.34;65.42
65685;BME280;52405;50.844;-1.062;2022-08-21T05:29:18;101770.91;;;18.38;64.82
65685;BME280;52405;50.844;-1.062;2022-08-21T05:31:44;101774.44;;;18.39;65.08
65685;BME280;52405;50.844;-1.062;2022-08-21T05:34:12;101778.84;;;18.41;64.10
65685;BME280;52405;50.844;-1.062;2022-08-21T05:36:37;101785.03;;;18.43;64.26
65685;BME280;52405;50.844;-1.062;2022-08-21T05:39:03;101755.91;;;18.34;64.55
65685;BME280;52405;50.844;-1.062;2022-08-21T05:41:29;101780.69;;;18.44;64.56
65685;BME280;52405;50.844;-1.062;2022-08-21T05:43:54;101792.97;;;18.45;64.42
65685;BME280;52405;50.844;-1.062;2022-08-21T05:46:19;101800.81;;;18.43;63.93
65685;BME280;52405;50.844;-1.062;2022-08-21T05:48:45;101808.69;;;18.43;64.01
65685;BME280;52405;50.844;-1.062;2022-08-21T05:51:13;101814.88;;;18.44;64.80
65685;BME280;52405;50.844;-1.062;2022-08-21T05:53:40;101814.91;;;18.45;63.95
65685;BME280;52405;50.844;-1.062;2022-08-21T05:56:07;101814.06;;;18.48;63.71
65685;BME280;52405;50.844;-1.062;2022-08-21T05:58:34;101811.53;;;18.51;63.84
65685;BME280;52405;50.844;-1.062;2022-08-21T06:01:01;101807.16;;;18.53;63.72
65685;BME280;52405;50.844;-1.062;2022-08-21T06:03:30;101766.63;;;18.43;64.19
65685;BME280;52405;50.844;-1.062;2022-08-21T06:05:56;101777.34;;;18.54;63.85
65685;BME280;52405;50.844;-1.062;2022-08-21T06:08:22;101788.19;;;18.69;63.80
65685;BME280;52405;50.844;-1.062;2022-08-21T06:10:50;101777.84;;;18.79;63.57
65685;BME280;52405;50.844;-1.062;2022-08-21T06:13:17;101773.59;;;18.84;63.35
65685;BME280;52405;50.844;-1.062;2022-08-21T06:15:42;101776.44;;;18.96;63.18
65685;BME280;52405;50.844;-1.062;2022-08-21T06:18:08;101766.91;;;19.03;63.08
65685;BME280;52405;50.844;-1.062;2022-08-21T06:20:34;101775.03;;;19.17;62.64
65685;BME280;52405;50.844;-1.062;2022-08-21T06:23:01;101766.34;;;19.22;62.63
65685;BME280;52405;50.844;-1.062;2022-08-21T06:25:26;101769.94;;;19.27;62.12
65685;BME280;52405;50.844;-1.062;2022-08-21T06:27:52;101766.50;;;19.30;62.36
65685;BME280;52405;50.844;-1.062;2022-08-21T06:30:18;101759.50;;;19.32;61.37
65685;BME280;52405;50.844;-1.062;2022-08-21T06:32:43;101751.63;;;19.34;61.39
65685;BME280;52405;50.844;-1.062;2022-08-21T06:35:09;101741.06;;;19.32;61.03
65685;BME280;52405;50.844;-1.062;2022-08-21T06:37:34;101753.50;;;19.41;61.03
65685;BME280;52405;50.844;-1.062;2022-08-21T06:40:01;101757.03;;;19.44;59.93
65685;BME280;52405;50.844;-1.062;2022-08-21T06:42:26;101753.59;;;19.49;60.20
65685;BME280;52405;50.844;-1.062;2022-08-21T06:44:53;101751.88;;;19.51;59.89
65685;BME280;52405;50.844;-1.062;2022-08-21T06:47:19;101754.56;;;19.54;59.97
65685;BME280;52405;50.844;-1.062;2022-08-21T06:49:44;101747.44;;;19.47;59.52
65685;BME280;52405;50.844;-1.062;2022-08-21T06:52:11;101758.97;;;19.55;59.29
65685;BME280;52405;50.844;-1.062;2022-08-21T06:54:38;101750.19;;;19.54;59.39
65685;BME280;52405;50.844;-1.062;2022-08-21T06:57:04;101751.91;;;19.52;59.29
65685;BME280;52405;50.844;-1.062;2022-08-21T06:59:31;101744.84;;;19.51;58.69
65685;BME280;52405;50.844;-1.062;2022-08-21T07:02:00;101737.81;;;19.50;58.83
65685;BME280;52405;50.844;-1.062;2022-08-21T07:04:25;101732.50;;;19.47;59.07
65685;BME280;52405;50.844;-1.062;2022-08-21T07:06:51;101721.94;;;19.45;58.30
65685;BME280;52405;50.844;-1.062;2022-08-21T07:09:17;101722.78;;;19.44;59.44
65685;BME280;52405;50.844;-1.062;2022-08-21T07:11:44;101731.56;;;19.43;59.02
65685;BME280;52405;50.844;-1.062;2022-08-21T07:14:12;101714.00;;;19.44;58.75
65685;BME280;52405;50.844;-1.062;2022-08-21T07:16:37;101707.81;;;19.40;58.11
65685;BME280;52405;50.844;-1.062;2022-08-21T07:19:03;101700.81;;;19.42;58.63
65685;BME280;52405;50.844;-1.062;2022-08-21T07:21:28;101697.38;;;19.48;58.52
65685;BME280;52405;50.844;-1.062;2022-08-21T07:23:54;101691.25;;;19.49;58.40
65685;BME280;52405;50.844;-1.062;2022-08-21T07:26:21;101694.78;;;19.51;58.71
65685;BME280;52405;50.844;-1.062;2022-08-21T07:28:48;101686.88;;;19.51;58.47
65685;BME280;52405;50.844;-1.062;2022-08-21T07:31:16;101655.97;;;19.38;58.11
65685;BME280;52405;50.844;-1.062;2022-08-21T07:33:43;101692.34;;;19.63;58.48
65685;BME280;52405;50.844;-1.062;2022-08-21T07:36:09;101697.72;;;19.71;58.18
65685;BME280;52405;50.844;-1.062;2022-08-21T07:38:35;101673.91;;;19.65;58.11
65685;BME280;52405;50.844;-1.062;2022-08-21T07:41:01;101697.13;;;19.92;57.96
65685;BME280;52405;50.844;-1.062;2022-08-21T07:43:28;101691.09;;;20.01;57.46
65685;BME280;52405;50.844;-1.062;2022-08-21T07:45:54;101694.72;;;20.12;57.30
65685;BME280;52405;50.844;-1.062;2022-08-21T07:48:21;101686.91;;;20.21;57.31
65685;BME280;52405;50.844;-1.062;2022-08-21T07:50:47;101677.34;;;20.28;57.29
65685;BME280;52405;50.844;-1.062;2022-08-21T07:53:13;101692.38;;;20.37;57.08
65685;BME280;52405;50.844;-1.062;2022-08-21T07:55:39;101701.25;;;20.42;56.91
65685;BME280;52405;50.844;-1.062;2022-08-21T07:58:05;101711.84;;;20.48;56.92
65685;BME280;52405;50.844;-1.062;2022-08-21T08:00:30;101711.88;;;20.53;56.67
65685;BME280;52405;50.844;-1.062;2022-08-21T08:02:56;101721.59;;;20.55;56.61
65685;BME280;52405;50.844;-1.062;2022-08-21T08:05:28;101724.38;;;20.65;55.96
65685;BME280;52405;50.844;-1.062;2022-08-21T08:07:54;101733.25;;;20.73;56.04
65685;BME280;52405;50.844;-1.062;2022-08-21T08:10:22;101736.91;;;20.89;56.22
65685;BME280;52405;50.844;-1.062;2022-08-21T08:12:48;101739.72;;;21.07;55.76
65685;BME280;52405;50.844;-1.062;2022-08-21T08:15:16;101737.25;;;21.32;55.25
65685;BME280;52405;50.844;-1.062;2022-08-21T08:17:42;101733.06;;;21.52;55.29
65685;BME280;52405;50.844;-1.062;2022-08-21T08:20:10;101726.06;;;21.64;54.51
65685;BME280;52405;50.844;-1.062;2022-08-21T08:22:37;101733.22;;;21.83;54.35
65685;BME280;52405;50.844;-1.062;2022-08-21T08:25:05;101735.94;;;21.97;54.07
65685;BME280;52405;50.844;-1.062;2022-08-21T08:27:31;101713.03;;;22.01;53.82
65685;BME280;52405;50.844;-1.062;2022-08-21T08:29:56;101731.69;;;22.28;53.15
65685;BME280;52405;50.844;-1.062;2022-08-21T08:32:23;101704.34;;;22.28;52.43
65685;BME280;52405;50.844;-1.062;2022-08-21T08:34:49;101721.16;;;22.47;52.18
65685;BME280;52405;50.844;-1.062;2022-08-21T08:37:17;101732.66;;;22.60;52.36
65685;BME280;52405;50.844;-1.062;2022-08-21T08:39:43;101734.44;;;22.67;52.21
65685;BME280;52405;50.844;-1.062;2022-08-21T08:42:12;101726.47;;;22.73;51.73
65685;BME280;52405;50.844;-1.062;2022-08-21T08:44:43;101729.13;;;22.82;51.86
65685;BME280;52405;50.844;-1.062;2022-08-21T08:47:10;101737.09;;;22.90;50.41
65685;BME280;52405;50.844;-1.062;2022-08-21T08:49:44;101728.28;;;22.94;50.50
65685;BME280;52405;50.844;-1.062;2022-08-21T08:52:20;101707.09;;;22.94;50.93
65685;BME280;52405;50.844;-1.062;2022-08-21T08:54:50;101722.13;;;23.09;49.48
65685;BME280;52405;50.844;-1.062;2022-08-21T08:57:19;101735.38;;;23.14;49.90
65685;BME280;52405;50.844;-1.062;2022-08-21T08:59:52;101738.03;;;23.18;49.45
65685;BME280;52405;50.844;-1.062;2022-08-21T09:02:19;101746.88;;;23.22;48.81
65685;BME280;52405;50.844;-1.062;2022-08-21T09:04:47;101744.19;;;23.25;48.44
65685;BME280;52405;50.844;-1.062;2022-08-21T09:12:59;101759.19;;;23.43;46.29
65685;BME280;52405;50.844;-1.062;2022-08-21T09:15:33;101758.31;;;23.47;46.06
65685;BME280;52405;50.844;-1.062;2022-08-21T09:18:10;101751.25;;;23.54;46.10
65685;BME280;52405;50.844;-1.062;2022-08-21T09:23:32;101760.94;;;23.73;43.59
65685;BME280;52405;50.844;-1.062;2022-08-21T09:28:36;101760.94;;;23.82;44.51
65685;BME280;52405;50.844;-1.062;2022-08-21T09:31:20;101752.09;;;23.90;44.10
65685;BME280;52405;50.844;-1.062;2022-08-21T09:33:46;101755.56;;;23.99;44.84
65685;BME280;52405;50.844;-1.062;2022-08-21T09:36:24;101758.19;;;24.10;44.04
65685;BME280;52405;50.844;-1.062;2022-08-21T09:38:53;101759.03;;;24.17;43.90
65685;BME280;52405;50.844;-1.062;2022-08-21T09:41:26;101761.69;;;24.21;43.43
65685;BME280;52405;50.844;-1.062;2022-08-21T09:43:53;101760.81;;;24.22;43.50
65685;BME280;52405;50.844;-1.062;2022-08-21T09:46:21;101759.03;;;24.21;43.64
65685;BME280;52405;50.844;-1.062;2022-08-21T09:48:50;101754.63;;;24.14;43.98
65685;BME280;52405;50.844;-1.062;2022-08-21T09:51:33;101746.72;;;24.08;43.57
65685;BME280;52405;50.844;-1.062;2022-08-21T09:54:14;101749.38;;;24.07;43.45
65685;BME280;52405;50.844;-1.062;2022-08-21T09:56:59;101737.88;;;24.01;43.00
65685;BME280;52405;50.844;-1.062;2022-08-21T09:59:45;101734.38;;;23.93;44.20
65685;BME280;52405;50.844;-1.062;2022-08-21T10:02:32;101736.16;;;23.86;43.78
65685;BME280;52405;50.844;-1.062;2022-08-21T10:05:00;101743.25;;;23.80;44.64
65685;BME280;52405;50.844;-1.062;2022-08-21T10:07:31;101744.13;;;23.74;44.81
65685;BME280;52405;50.844;-1.062;2022-08-21T10:10:03;101737.06;;;23.67;44.38
65685;BME280;52405;50.844;-1.062;2022-08-21T10:20:26;101738.91;;;23.19;45.21
65685;BME280;52405;50.844;-1.062;2022-08-21T10:28:39;101727.38;;;22.72;46.77
65685;BME280;52405;50.844;-1.062;2022-08-21T10:39:33;101759.81;;;22.14;48.47
65685;BME280;52405;50.844;-1.062;2022-08-21T10:42:17;101759.75;;;22.03;48.70
65685;BME280;52405;50.844;-1.062;2022-08-21T10:47:57;101749.16;;;21.95;49.61
65685;BME280;52405;50.844;-1.062;2022-08-21T10:50:43;101756.22;;;21.98;50.95
65685;BME280;52405;50.844;-1.062;2022-08-21T10:56:20;101743.88;;;21.95;51.19
65685;BME280;52405;50.844;-1.062;2022-08-21T11:01:53;101735.94;;;22.02;52.19
65685;BME280;52405;50.844;-1.062;2022-08-21T11:04:56;101708.56;;;21.84;52.57
65685;BME280;52405;50.844;-1.062;2022-08-21T11:07:33;101734.22;;;22.04;52.58
65685;BME280;52405;50.844;-1.062;2022-08-21T11:10:10;101735.09;;;22.06;52.45
65685;BME280;52405;50.844;-1.062;2022-08-21T11:12:44;101744.78;;;22.05;52.15
65685;BME280;52405;50.844;-1.062;2022-08-21T11:20:45;101750.06;;;21.99;52.49
65685;BME280;52405;50.844;-1.062;2022-08-21T11:26:17;101754.47;;;22.02;52.10
65685;BME280;52405;50.844;-1.062;2022-08-21T11:29:16;101754.47;;;21.99;50.76
65685;BME280;52405;50.844;-1.062;2022-08-21T11:39:34;101745.72;;;22.13;50.67
65685;BME280;52405;50.844;-1.062;2022-08-21T11:42:17;101757.22;;;22.25;51.24
65685;BME280;52405;50.844;-1.062;2022-08-21T11:50:14;101753.78;;;22.47;50.50
65685;BME280;52405;50.844;-1.062;2022-08-21T11:52:44;101758.25;;;22.65;50.32
65685;BME280;52405;50.844;-1.062;2022-08-21T11:55:21;101749.47;;;22.83;49.75
65685;BME280;52405;50.844;-1.062;2022-08-21T12:03:05;101753.00;;;23.52;48.46
65685;BME280;52405;50.844;-1.062;2022-08-21T12:05:39;101749.44;;;23.82;48.13
65685;BME280;52405;50.844;-1.062;2022-08-21T12:08:09;101753.78;;;24.03;47.51
65685;BME280;52405;50.844;-1.062;2022-08-21T12:10:41;101751.09;;;24.15;46.11
65685;BME280;52405;50.844;-1.062;2022-08-21T12:13:10;101752.72;;;24.44;45.98
65685;BME280;52405;50.844;-1.062;2022-08-21T12:15:37;101744.59;;;24.78;45.22
65685;BME280;52405;50.844;-1.062;2022-08-21T12:18:21;101746.19;;;24.99;44.97
65685;BME280;52405;50.844;-1.062;2022-08-21T12:21:47;101746.19;;;25.00;44.39
65685;BME280;52405;50.844;-1.062;2022-08-21T12:24:05;101743.53;;;24.96;44.61
65685;BME280;52405;50.844;-1.062;2022-08-21T12:29:24;101738.28;;;24.88;44.20
65685;BME280;52405;50.844;-1.062;2022-08-21T12:31:58;101739.19;;;24.87;43.36
65685;BME280;52405;50.844;-1.062;2022-08-21T12:34:30;101732.13;;;24.85;43.52
65685;BME280;52405;50.844;-1.062;2022-08-21T12:37:00;101739.16;;;24.90;43.48
65685;BME280;52405;50.844;-1.062;2022-08-21T12:39:31;101729.31;;;25.03;43.61
65685;BME280;52405;50.844;-1.062;2022-08-21T12:42:29;101724.75;;;25.16;43.84
65685;BME280;52405;50.844;-1.062;2022-08-21T12:45:00;101714.94;;;25.27;43.39
65685;BME280;52405;50.844;-1.062;2022-08-21T12:50:20;101731.63;;;25.43;43.45
65685;BME280;52405;50.844;-1.062;2022-08-21T12:53:06;101734.22;;;25.51;43.82
65685;BME280;52405;50.844;-1.062;2022-08-21T12:55:33;101735.03;;;25.57;44.48
65685;BME280;52405;50.844;-1.062;2022-08-21T12:58:00;101729.63;;;25.67;43.80
65685;BME280;52405;50.844;-1.062;2022-08-21T13:00:29;101724.19;;;25.76;44.09
65685;BME280;52405;50.844;-1.062;2022-08-21T13:02:56;101721.50;;;25.81;44.52
65685;BME280;52405;50.844;-1.062;2022-08-21T13:05:34;101725.91;;;25.82;43.85
65685;BME280;52405;50.844;-1.062;2022-08-21T13:08:10;101724.09;;;25.82;44.04
65685;BME280;52405;50.844;-1.062;2022-08-21T13:10:36;101708.25;;;25.74;43.90
65685;BME280;52405;50.844;-1.062;2022-08-21T13:13:21;101720.66;;;25.77;43.53
65685;BME280;52405;50.844;-1.062;2022-08-21T13:15:47;101710.91;;;25.74;43.74
65685;BME280;52405;50.844;-1.062;2022-08-21T13:18:22;101713.59;;;25.71;43.17
65685;BME280;52405;50.844;-1.062;2022-08-21T13:20:48;101706.53;;;25.67;43.89
65685;BME280;52405;50.844;-1.062;2022-08-21T13:23:27;101714.53;;;25.67;43.59
65685;BME280;52405;50.844;-1.062;2022-08-21T13:25:53;101707.41;;;25.69;44.04
65685;BME280;52405;50.844;-1.062;2022-08-21T13:28:19;101712.66;;;25.77;43.82
65685;BME280;52405;50.844;-1.062;2022-08-21T13:30:52;101708.97;;;25.87;43.88
65685;BME280;52405;50.844;-1.062;2022-08-21T13:33:21;101710.72;;;25.93;44.37
65685;BME280;52405;50.844;-1.062;2022-08-21T13:38:29;101708.75;;;26.07;44.54
65685;BME280;52405;50.844;-1.062;2022-08-21T13:40:58;101695.56;;;26.00;45.15
65685;BME280;52405;50.844;-1.062;2022-08-21T13:43:33;101708.63;;;26.16;44.67
65685;BME280;52405;50.844;-1.062;2022-08-21T13:46:00;101693.56;;;26.15;44.50
65685;BME280;52405;50.844;-1.062;2022-08-21T13:48:30;101704.84;;;26.33;44.48
65685;BME280;52405;50.844;-1.062;2022-08-21T13:50:58;101694.09;;;26.39;44.29
65685;BME280;52405;50.844;-1.062;2022-08-21T13:55:51;101689.53;;;26.50;43.65
65685;BME280;52405;50.844;-1.062;2022-08-21T13:58:26;101681.53;;;26.50;43.44
65685;BME280;52405;50.844;-1.062;2022-08-21T14:00:53;101682.28;;;26.59;43.56
65685;BME280;52405;50.844;-1.062;2022-08-21T14:03:34;101686.66;;;26.64;43.27
65685;BME280;52405;50.844;-1.062;2022-08-21T14:06:12;101667.13;;;26.65;42.95
65685;BME280;52405;50.844;-1.062;2022-08-21T14:08:39;101673.19;;;26.73;42.83